Time;durP1;ratioP1;P1;durP2;ratioP2;P2;SDS_P1;SDS_P2;PMS_P1;PMS_P2;Temp;Humidity;BMP_temperature;BMP_pressure;BME280_temperature;BME280_humidity;BME280_pressure;Samples;Min_cycle;Max_cycle;Signal;HPM_P1;HPM_P2
2023/09/30 00:01:11;;;;;;;13.43;12.13;;;;;;;16.13;69.14;93288.78;5089894;28;20244;-79
2023/09/30 00:03:37;;;;;;;13.47;11.70;;;;;;;16.14;69.47;93290.34;5088598;28;20220;-82
2023/09/30 00:06:03;;;;;;;14.07;12.60;;;;;;;16.18;68.51;93278.16;5088155;28;21082;-79
2023/09/30 00:08:29;;;;;;;11.53;10.47;;;;;;;16.26;68.07;93281.94;5087983;28;20288;-79
2023/09/30 00:10:55;;;;;;;15.03;12.27;;;;;;;16.08;70.66;93277.59;5088840;28;20924;-79
2023/09/30 00:13:20;;;;;;;13.80;11.57;;;;;;;16.23;69.91;93270.16;5087186;28;20216;-79
2023/09/30 00:15:46;;;;;;;16.27;12.83;;;;;;;16.34;70.12;93279.41;5071140;28;20204;-79
2023/09/30 00:18:11;;;;;;;14.23;12.13;;;;;;;16.36;69.08;93279.84;5062044;28;20243;-79
2023/09/30 00:20:36;;;;;;;13.30;12.20;;;;;;;16.33;69.24;93277.06;5072129;28;20189;-77
2023/09/30 00:23:02;;;;;;;15.33;13.17;;;;;;;16.20;70.37;93278.66;5090592;28;20221;-78
2023/09/30 00:25:27;;;;;;;12.77;11.40;;;;;;;16.05;70.43;93265.78;5086708;28;20216;-78
2023/09/30 00:27:53;;;;;;;13.67;11.13;;;;;;;16.08;70.27;93254.66;5080643;28;20243;-79
2023/09/30 00:30:18;;;;;;;16.50;12.20;;;;;;;15.98;69.09;93270.69;5088091;28;20215;-79
2023/09/30 00:32:43;;;;;;;13.80;12.27;;;;;;;16.13;69.71;93267.72;5088252;28;20179;-79
2023/09/30 00:35:10;;;;;;;13.37;12.00;;;;;;;16.20;72.01;93269.94;5087611;28;20185;-79
2023/09/30 00:37:38;;;;;;;15.20;11.97;;;;;;;15.88;70.91;93260.34;5090077;28;20234;-80
2023/09/30 00:40:04;;;;;;;13.30;12.13;;;;;;;16.19;70.14;93268.41;5065296;28;20169;-79
2023/09/30 00:42:29;;;;;;;12.50;11.40;;;;;;;16.09;71.22;93251.72;5088785;28;20192;-79
2023/09/30 00:44:55;;;;;;;13.47;11.97;;;;;;;16.24;71.05;93260.38;5087967;28;20216;-79
2023/09/30 00:47:21;;;;;;;12.97;11.60;;;;;;;16.22;70.73;93265.94;5087856;28;20208;-79
2023/09/30 00:49:46;;;;;;;17.40;11.43;;;;;;;16.21;71.05;93261.75;5075822;28;20860;-79
2023/09/30 00:52:12;;;;;;;19.60;11.87;;;;;;;16.29;70.82;93268.16;5087215;28;20189;-79
2023/09/30 00:54:39;;;;;;;13.43;12.03;;;;;;;16.34;70.27;93276.75;5085725;28;20232;-79
2023/09/30 00:57:05;;;;;;;13.53;11.63;;;;;;;16.39;69.66;93271.34;5087446;28;20181;-78
2023/09/30 00:59:32;;;;;;;13.80;12.40;;;;;;;16.41;70.48;93273.69;5080949;28;20528;-80
2023/09/30 01:02:00;;;;;;;13.77;11.17;;;;;;;16.47;71.18;93268.03;5069133;28;20178;-79
2023/09/30 01:04:26;;;;;;;13.30;12.10;;;;;;;16.54;71.15;93276.34;5080688;28;20212;-79
2023/09/30 01:06:52;;;;;;;13.87;12.30;;;;;;;16.41;69.20;93268.41;5088391;28;20241;-80
2023/09/30 01:09:17;;;;;;;16.93;11.43;;;;;;;16.33;70.18;93262.00;5087882;28;20228;-80
2023/09/30 01:11:44;;;;;;;13.40;12.10;;;;;;;16.33;70.59;93254.09;5085825;28;20173;-79
2023/09/30 01:14:30;;;;;;;12.67;11.60;;;;;;;16.41;71.13;93263.94;5091715;28;20220;-80
2023/09/30 01:16:56;;;;;;;12.87;11.87;;;;;;;16.34;71.40;93247.78;5086377;28;20184;-80
2023/09/30 01:19:23;;;;;;;18.90;11.37;;;;;;;16.40;70.75;93262.41;5078728;28;20284;-80
2023/09/30 01:21:49;;;;;;;12.70;11.60;;;;;;;16.49;68.80;93258.00;5080575;28;20185;-80
2023/09/30 01:24:15;;;;;;;14.43;10.57;;;;;;;16.43;68.12;93253.88;5095816;28;20255;-80
2023/09/30 01:26:42;;;;;;;12.67;11.57;;;;;;;16.41;69.37;93245.50;5087722;28;20224;-80
2023/09/30 01:29:11;;;;;;;13.30;11.13;;;;;;;16.51;69.14;93266.38;5084624;28;20208;-79
2023/09/30 01:31:37;;;;;;;12.63;11.33;;;;;;;16.57;68.12;93259.91;5084691;28;21150;-79
2023/09/30 01:34:02;;;;;;;11.80;10.67;;;;;;;16.53;66.23;93263.47;5079799;28;20284;-80
2023/09/30 01:36:28;;;;;;;12.17;11.07;;;;;;;16.61;65.71;93258.22;5084785;28;20197;-80
2023/09/30 01:38:54;;;;;;;13.13;11.90;;;;;;;16.59;67.18;93254.34;5078292;28;20229;-80
2023/09/30 01:41:19;;;;;;;13.03;11.77;;;;;;;16.56;66.00;93263.63;5084900;28;20181;-80
2023/09/30 01:43:44;;;;;;;12.63;11.63;;;;;;;16.69;65.06;93262.78;5063732;28;20222;-80
2023/09/30 01:46:10;;;;;;;12.17;11.17;;;;;;;16.78;64.01;93261.00;5084672;28;20248;-80
2023/09/30 01:48:36;;;;;;;12.90;10.60;;;;;;;16.75;66.63;93258.97;5091542;28;20223;-80
2023/09/30 01:51:01;;;;;;;13.20;11.73;;;;;;;16.69;68.35;93259.38;5088633;28;20203;-80
2023/09/30 01:53:26;;;;;;;11.50;10.50;;;;;;;16.73;68.28;93253.19;5083767;28;20260;-82
2023/09/30 01:55:52;;;;;;;14.37;11.73;;;;;;;16.61;66.98;93242.41;5083723;28;20191;-80
2023/09/30 01:58:17;;;;;;;12.23;10.70;;;;;;;16.75;67.43;93258.16;5090215;28;20236;-80
2023/09/30 02:00:43;;;;;;;12.83;11.60;;;;;;;16.62;68.28;93244.00;5090723;28;20204;-80
2023/09/30 02:03:08;;;;;;;12.10;11.17;;;;;;;16.82;66.96;93259.31;5090066;28;20251;-80
2023/09/30 02:05:34;;;;;;;13.03;12.10;;;;;;;16.68;68.03;93258.59;5078454;28;20188;-80
2023/09/30 02:07:59;;;;;;;13.47;10.47;;;;;;;16.54;68.21;93259.72;5097911;28;20220;-79
2023/09/30 02:10:24;;;;;;;14.60;11.00;;;;;;;16.41;69.51;93245.50;5093924;28;20187;-80
2023/09/30 02:12:50;;;;;;;12.40;11.37;;;;;;;16.57;70.22;93252.00;5083647;28;20185;-80
2023/09/30 02:15:16;;;;;;;16.30;11.70;;;;;;;16.56;69.33;93247.03;5086551;28;20188;-80
2023/09/30 02:17:45;;;;;;;12.03;10.77;;;;;;;16.57;68.81;93241.47;5079498;28;20185;-80
2023/09/30 02:20:13;;;;;;;12.50;11.40;;;;;;;16.48;69.03;93238.00;5083930;28;20192;-80
2023/09/30 02:22:39;;;;;;;13.10;11.93;;;;;;;16.50;67.94;93241.09;5085622;28;20204;-80
2023/09/30 02:25:07;;;;;;;13.97;11.73;;;;;;;16.65;67.19;93248.66;5079916;28;20173;-80
2023/09/30 02:27:33;;;;;;;12.67;11.37;;;;;;;16.48;68.64;93253.81;5080436;28;20291;-78
2023/09/30 02:29:59;;;;;;;12.20;11.07;;;;;;;16.27;68.67;93238.69;5068498;28;20177;-81
2023/09/30 02:32:24;;;;;;;11.73;10.93;;;;;;;16.38;68.21;93247.94;5086398;28;20193;-80
2023/09/30 02:34:50;;;;;;;13.33;11.10;;;;;;;16.43;66.66;93245.19;5084332;28;20229;-87
2023/09/30 02:37:18;;;;;;;12.40;11.33;;;;;;;16.09;67.95;93214.06;5092014;28;20189;-84
2023/09/30 02:39:44;;;;;;;12.30;11.27;;;;;;;16.33;66.77;93251.47;5088233;28;20221;-85
2023/09/30 02:42:10;;;;;;;12.63;11.73;;;;;;;16.27;67.85;93244.75;5090833;28;20196;-85
2023/09/30 02:44:35;;;;;;;12.80;11.77;;;;;;;16.19;68.64;93250.72;5091903;28;20213;-84
2023/09/30 02:47:00;;;;;;;12.97;11.67;;;;;;;16.06;69.83;93252.31;5092109;28;20303;-85
2023/09/30 02:49:26;;;;;;;14.93;12.17;;;;;;;16.00;70.18;93257.97;5085667;28;20287;-76
2023/09/30 02:51:51;;;;;;;13.07;11.87;;;;;;;15.86;71.15;93233.50;5101686;28;20834;-84
2023/09/30 02:54:17;;;;;;;13.27;12.17;;;;;;;15.85;71.11;93242.50;5090180;28;20251;-82
2023/09/30 02:56:42;;;;;;;12.63;11.53;;;;;;;15.88;70.89;93249.81;5090000;28;20180;-80
2023/09/30 02:59:08;;;;;;;12.80;11.80;;;;;;;15.73;72.07;93247.50;5090153;28;20244;-79
2023/09/30 03:01:34;;;;;;;12.40;11.50;;;;;;;15.65;72.46;93241.06;5072142;28;20252;-80
2023/09/30 03:03:59;;;;;;;13.43;12.30;;;;;;;15.63;73.05;93250.31;5088819;28;20229;-79
2023/09/30 03:06:25;;;;;;;14.23;11.30;;;;;;;15.68;71.64;93247.59;5072324;28;20235;-80
2023/09/30 03:08:51;;;;;;;13.20;11.97;;;;;;;15.67;71.50;93248.66;5089910;28;20259;-80
2023/09/30 03:11:18;;;;;;;13.77;11.07;;;;;;;15.74;71.32;93246.41;5081440;28;20196;-80
2023/09/30 03:13:44;;;;;;;14.17;12.27;;;;;;;15.71;71.09;93249.63;5072405;28;20229;-80
2023/09/30 03:16:09;;;;;;;12.93;11.73;;;;;;;15.84;72.02;93248.84;5088675;28;20191;-80
2023/09/30 03:18:34;;;;;;;12.53;11.53;;;;;;;15.87;72.00;93256.94;5088891;28;20220;-80
2023/09/30 03:21:01;;;;;;;12.90;11.60;;;;;;;15.72;70.70;93235.41;5088846;28;20260;-78
2023/09/30 03:23:30;;;;;;;16.57;12.23;;;;;;;15.80;71.50;93226.78;5100541;28;20237;-80
2023/09/30 03:25:59;;;;;;;12.77;11.77;;;;;;;15.83;70.91;93239.38;5089513;28;20224;-79
2023/09/30 03:28:28;;;;;;;12.47;11.43;;;;;;;15.77;71.65;93227.38;5089364;28;20233;-80
2023/09/30 03:30:54;;;;;;;13.23;12.03;;;;;;;15.70;72.90;93243.56;5088264;28;20173;-80
2023/09/30 03:33:19;;;;;;;12.70;11.73;;;;;;;15.72;72.79;93241.44;5089167;28;20780;-80
2023/09/30 03:35:44;;;;;;;12.63;11.67;;;;;;;15.64;73.28;93244.00;5071963;28;20169;-80
2023/09/30 03:38:12;;;;;;;11.90;10.80;;;;;;;15.56;74.10;93237.56;5086130;28;20301;-80
2023/09/30 03:40:38;;;;;;;13.10;11.87;;;;;;;15.61;74.23;93239.31;5089235;28;20177;-80
2023/09/30 03:43:08;;;;;;;17.97;11.93;;;;;;;15.66;72.99;93249.72;5088841;28;20228;-80
2023/09/30 03:45:34;;;;;;;13.80;11.70;;;;;;;15.76;72.96;93246.91;5095226;28;20185;-80
2023/09/30 03:48:01;;;;;;;13.23;12.03;;;;;;;15.72;73.02;93235.41;5089200;28;20239;-80
2023/09/30 03:50:28;;;;;;;15.70;12.60;;;;;;;15.68;73.51;93235.22;5089609;28;20180;-80
2023/09/30 03:53:01;;;;;;;13.40;12.20;;;;;;;15.68;74.64;93237.06;5088668;28;20239;-80
2023/09/30 03:55:26;;;;;;;13.40;12.13;;;;;;;15.79;72.30;93246.31;5088717;28;20190;-82
2023/09/30 03:57:52;;;;;;;13.23;12.27;;;;;;;15.57;74.07;93239.13;5084981;28;20223;-80
2023/09/30 04:00:19;;;;;;;15.47;12.17;;;;;;;15.54;73.90;93239.69;5088791;28;20250;-79
2023/09/30 04:02:48;;;;;;;14.40;13.07;;;;;;;15.54;74.06;93234.44;5088478;28;20187;-80
2023/09/30 04:05:14;;;;;;;16.13;11.00;;;;;;;15.52;73.37;93244.47;5083371;28;20180;-80
2023/09/30 04:07:42;;;;;;;16.93;12.47;;;;;;;15.36;75.14;93239.78;5084592;28;20232;-81
2023/09/30 04:10:08;;;;;;;13.03;11.83;;;;;;;15.26;74.97;93232.06;5072071;28;20252;-78
2023/09/30 04:12:33;;;;;;;12.57;11.53;;;;;;;15.22;75.05;93236.34;5087094;28;20252;-80
2023/09/30 04:15:00;;;;;;;12.97;11.87;;;;;;;15.06;75.72;93230.59;5079372;28;20208;-80
2023/09/30 04:17:26;;;;;;;12.10;11.10;;;;;;;15.19;75.86;93247.44;5089368;28;20267;-80
2023/09/30 04:19:52;;;;;;;13.30;12.40;;;;;;;14.98;76.18;93230.47;5062928;28;20237;-82
2023/09/30 04:22:18;;;;;;;14.03;12.83;;;;;;;14.85;76.77;93231.97;5094856;28;20207;-80
2023/09/30 04:24:44;;;;;;;12.83;12.03;;;;;;;15.02;76.05;93255.88;5085646;28;20240;-80
2023/09/30 04:27:09;;;;;;;13.03;11.90;;;;;;;14.86;77.39;93249.34;5080621;28;20225;-81
2023/09/30 04:29:36;;;;;;;14.73;12.07;;;;;;;14.82;78.98;93258.84;5081684;28;20231;-80
2023/09/30 04:32:01;;;;;;;16.07;14.73;;;;;;;14.64;77.69;93240.50;5078215;28;20213;-80
2023/09/30 04:34:27;;;;;;;14.20;12.87;;;;;;;14.73;77.93;93255.31;5082123;28;20220;-79
2023/09/30 04:36:53;;;;;;;14.53;12.57;;;;;;;14.78;79.46;93259.72;5086981;28;20219;-78
2023/09/30 04:39:18;;;;;;;13.27;12.17;;;;;;;14.77;77.83;93258.94;5086464;28;20244;-80
2023/09/30 04:41:44;;;;;;;12.43;11.53;;;;;;;14.73;76.82;93254.53;5084660;28;20224;-78
2023/09/30 04:44:09;;;;;;;12.40;10.40;;;;;;;14.61;77.94;93257.63;5088129;28;20231;-81
2023/09/30 04:46:40;;;;;;;16.67;12.40;;;;;;;14.56;78.96;93255.06;5088279;28;20224;-85
2023/09/30 04:49:09;;;;;;;12.50;11.60;;;;;;;14.63;76.99;93246.84;5085875;28;20221;-78
2023/09/30 04:51:34;;;;;;;13.23;11.97;;;;;;;14.44;76.75;93226.59;5086040;28;20184;-84
2023/09/30 04:54:01;;;;;;;13.47;11.27;;;;;;;14.69;75.97;93258.81;5090426;28;20307;-81
2023/09/30 04:56:27;;;;;;;13.30;11.93;;;;;;;14.67;79.73;93276.72;5083120;28;20184;-80
2023/09/30 04:58:52;;;;;;;12.77;11.67;;;;;;;14.72;77.75;93274.00;5087973;28;20217;-81
2023/09/30 05:01:18;;;;;;;13.83;11.80;;;;;;;14.85;77.53;93274.03;5084002;28;20965;-77
2023/09/30 05:03:45;;;;;;;13.43;12.13;;;;;;;14.87;77.71;93276.38;5074978;28;20227;-79
2023/09/30 05:06:10;;;;;;;12.53;11.43;;;;;;;14.94;79.07;93277.56;5079693;28;20189;-81
2023/09/30 05:08:35;;;;;;;13.37;12.30;;;;;;;14.96;78.35;93280.69;5082669;28;20258;-83
2023/09/30 05:11:01;;;;;;;13.20;11.47;;;;;;;14.91;77.80;93256.34;5093444;28;20195;-79
2023/09/30 05:13:26;;;;;;;12.63;11.43;;;;;;;15.00;77.13;93265.94;5074274;28;20435;-79
2023/09/30 05:15:52;;;;;;;15.13;12.80;;;;;;;15.16;78.28;93282.22;5087949;28;20222;-81
2023/09/30 05:18:18;;;;;;;12.53;11.43;;;;;;;15.28;76.35;93269.38;5071864;28;20235;-80
2023/09/30 05:20:44;;;;;;;13.37;12.23;;;;;;;15.28;77.39;93277.28;5088405;28;20181;-79
2023/09/30 05:23:12;;;;;;;14.17;12.87;;;;;;;15.30;77.81;93275.91;5091525;28;20242;-85
2023/09/30 05:25:37;;;;;;;13.90;12.60;;;;;;;15.31;77.63;93277.47;5102613;28;20322;-81
2023/09/30 05:28:05;;;;;;;12.90;11.97;;;;;;;15.40;78.37;93290.75;5087931;28;20224;-80
2023/09/30 05:30:31;;;;;;;12.83;11.73;;;;;;;15.44;78.68;93270.69;5090031;28;20180;-84
2023/09/30 05:32:56;;;;;;;13.03;11.80;;;;;;;15.57;78.12;93280.44;5086363;28;20299;-79
2023/09/30 05:35:22;;;;;;;12.73;11.37;;;;;;;15.69;75.96;93286.00;5097083;28;20188;-80
2023/09/30 05:37:48;;;;;;;13.17;12.20;;;;;;;15.79;74.14;93288.44;5089644;28;20188;-78
2023/09/30 05:40:25;;;;;;;13.53;12.50;;;;;;;15.84;73.55;93275.94;5090386;28;20188;-76
2023/09/30 05:42:53;;;;;;;13.17;12.07;;;;;;;15.87;71.63;93279.84;5089224;28;20192;-76
2023/09/30 05:45:18;;;;;;;13.83;11.03;;;;;;;16.06;69.52;93297.09;5062416;28;20176;-82
2023/09/30 05:47:46;;;;;;;14.00;12.90;;;;;;;16.19;69.87;93303.41;5067106;28;20205;-75
2023/09/30 05:50:16;;;;;;;15.73;12.90;;;;;;;16.27;72.73;93292.19;5092263;28;20195;-79
2023/09/30 05:52:45;;;;;;;13.73;12.33;;;;;;;16.33;72.75;93298.91;5087747;28;20185;-77
2023/09/30 05:55:11;;;;;;;12.73;11.73;;;;;;;16.11;69.87;93283.03;5089129;28;20181;-78
2023/09/30 05:57:36;;;;;;;14.43;13.13;;;;;;;16.36;70.99;93302.81;5083712;28;20208;-79
2023/09/30 06:00:20;;;;;;;17.30;12.37;;;;;;;16.30;69.71;93283.69;5092632;28;20189;-78
2023/09/30 06:02:47;;;;;;;17.17;11.33;;;;;;;16.38;68.06;93316.47;5089816;28;20176;-79
2023/09/30 06:05:12;;;;;;;15.63;12.97;;;;;;;16.70;69.18;93311.81;5088415;28;20181;-79
2023/09/30 06:07:38;;;;;;;16.93;10.90;;;;;;;16.80;69.85;93314.22;5091742;28;20191;-85
2023/09/30 06:10:05;;;;;;;12.70;11.43;;;;;;;16.78;67.91;93313.75;5097447;28;20188;-78
2023/09/30 06:12:30;;;;;;;14.73;12.03;;;;;;;16.83;67.06;93321.53;5091072;28;20200;-81
2023/09/30 06:14:56;;;;;;;12.90;11.57;;;;;;;16.65;65.97;93314.56;5090130;28;20212;-82
2023/09/30 06:17:22;;;;;;;12.03;11.00;;;;;;;16.93;65.78;93316.03;5076205;28;20192;-79
2023/09/30 06:19:50;;;;;;;18.93;11.20;;;;;;;17.03;65.89;93312.34;5088411;28;20255;-81
2023/09/30 06:22:16;;;;;;;12.00;11.03;;;;;;;17.13;63.80;93327.97;5088781;28;20188;-80
2023/09/30 06:24:41;;;;;;;14.63;13.20;;;;;;;17.17;63.70;93334.97;5078889;28;20263;-79
2023/09/30 06:27:07;;;;;;;12.67;11.47;;;;;;;17.31;64.23;93335.69;5090159;28;20242;-79
2023/09/30 06:29:33;;;;;;;12.10;11.10;;;;;;;17.34;64.38;93329.78;5080605;28;20266;-78
2023/09/30 06:31:59;;;;;;;15.40;12.23;;;;;;;17.53;62.21;93337.53;5087150;28;20181;-78
2023/09/30 06:34:25;;;;;;;15.63;11.47;;;;;;;17.43;61.81;93338.53;5087511;28;20220;-82
2023/09/30 06:36:52;;;;;;;14.93;11.03;;;;;;;17.49;63.09;93329.44;5089452;28;20188;-77
2023/09/30 06:39:17;;;;;;;11.17;10.27;;;;;;;17.60;59.81;93348.47;5062065;28;20834;-87
2023/09/30 06:41:43;;;;;;;12.13;10.67;;;;;;;17.67;61.12;93334.81;5082460;28;20189;-83
2023/09/30 06:44:09;;;;;;;14.30;11.43;;;;;;;17.83;60.62;93346.53;5087746;28;20270;-81
2023/09/30 06:46:34;;;;;;;11.87;10.37;;;;;;;17.61;59.14;93339.44;5093916;28;20243;-85
2023/09/30 06:48:59;;;;;;;12.20;11.13;;;;;;;17.59;60.53;93350.31;5089095;28;20232;-89
2023/09/30 06:51:26;;;;;;;12.73;11.37;;;;;;;17.78;60.11;93336.09;5106671;28;20212;-79
2023/09/30 06:53:52;;;;;;;13.27;11.97;;;;;;;17.99;58.86;93345.06;5100918;28;20300;-78
2023/09/30 06:56:18;;;;;;;12.83;11.73;;;;;;;18.06;58.50;93348.81;5091037;28;20180;-77
2023/09/30 06:58:43;;;;;;;18.77;11.60;;;;;;;18.19;58.76;93347.94;5090153;28;20221;-78
2023/09/30 07:01:08;;;;;;;13.77;12.00;;;;;;;18.20;59.77;93346.84;5088891;28;20177;-76
2023/09/30 07:03:34;;;;;;;15.47;12.13;;;;;;;18.16;59.72;93358.31;5066423;28;20218;-77
2023/09/30 07:06:00;;;;;;;14.53;11.50;;;;;;;18.47;59.81;93361.72;5087316;28;20225;-77
2023/09/30 07:08:29;;;;;;;13.77;11.93;;;;;;;18.63;59.07;93365.47;5089627;28;20213;-77
2023/09/30 07:10:56;;;;;;;13.83;12.63;;;;;;;18.56;60.08;93355.34;5080671;28;20192;-77
2023/09/30 07:13:21;;;;;;;12.83;11.60;;;;;;;18.56;58.94;93357.22;5082928;28;20222;-77
2023/09/30 07:15:47;;;;;;;17.23;12.37;;;;;;;18.74;60.27;93356.91;5107047;28;20186;-80
2023/09/30 07:18:12;;;;;;;18.23;12.87;;;;;;;18.83;60.28;93359.59;5084842;28;20229;-80
2023/09/30 07:20:38;;;;;;;15.17;13.33;;;;;;;18.78;59.46;93365.03;5087925;28;20184;-77
2023/09/30 07:23:03;;;;;;;16.53;12.20;;;;;;;18.93;59.44;93364.56;5086714;28;20243;-77
2023/09/30 07:25:31;;;;;;;13.70;11.97;;;;;;;19.14;57.86;93368.16;5086108;28;20223;-77
2023/09/30 07:27:58;;;;;;;13.33;12.00;;;;;;;18.96;55.71;93363.94;5088544;28;20230;-77
2023/09/30 07:30:24;;;;;;;15.67;12.07;;;;;;;19.10;56.46;93373.28;5083309;28;20220;-76
2023/09/30 07:32:50;;;;;;;15.80;12.17;;;;;;;19.34;55.67;93369.41;5082035;28;20183;-77
2023/09/30 07:35:16;;;;;;;12.50;11.23;;;;;;;19.10;55.26;93370.63;5085695;28;20243;-79
2023/09/30 07:37:42;;;;;;;11.73;10.53;;;;;;;19.21;52.64;93371.09;5079342;28;20178;-79
2023/09/30 07:40:08;;;;;;;13.07;10.10;;;;;;;19.05;51.70;93373.44;5087676;28;20178;-79
2023/09/30 07:42:34;;;;;;;11.20;10.27;;;;;;;19.52;52.15;93377.00;5085328;28;20179;-78
2023/09/30 07:45:00;;;;;;;13.20;10.97;;;;;;;19.95;51.13;93384.88;5087606;28;20201;-79
2023/09/30 07:47:25;;;;;;;12.17;10.97;;;;;;;19.56;51.61;93364.72;5058267;28;20203;-80
2023/09/30 07:49:51;;;;;;;13.53;11.43;;;;;;;19.37;50.69;93351.03;5088182;28;20276;-79
2023/09/30 07:52:16;;;;;;;13.07;11.77;;;;;;;19.79;50.32;93373.22;5087684;28;21008;-77
2023/09/30 07:54:42;;;;;;;18.13;12.77;;;;;;;19.75;51.05;93380.25;5094783;28;20224;-76
2023/09/30 07:57:07;;;;;;;18.57;10.87;;;;;;;20.08;50.40;93379.34;5063434;28;20181;-77
2023/09/30 07:59:33;;;;;;;21.27;12.20;;;;;;;20.11;50.06;93384.03;5070053;28;20234;-83
2023/09/30 08:01:59;;;;;;;12.50;11.27;;;;;;;19.69;48.07;93371.69;5068425;28;20284;-76
2023/09/30 08:04:24;;;;;;;14.83;12.47;;;;;;;20.20;46.83;93378.72;5065931;28;20250;-77
2023/09/30 08:06:53;;;;;;;14.40;12.90;;;;;;;20.53;45.78;93380.44;5065871;28;20227;-79
2023/09/30 08:09:18;;;;;;;15.80;12.27;;;;;;;20.63;44.91;93374.78;5058288;28;20228;-75
2023/09/30 08:11:44;;;;;;;19.47;12.00;;;;;;;20.79;44.27;93387.47;5062639;28;20713;-78
2023/09/30 08:14:10;;;;;;;14.20;12.93;;;;;;;20.51;43.91;93366.69;5066009;28;20204;-76
2023/09/30 08:16:37;;;;;;;14.37;13.00;;;;;;;20.83;42.26;93383.06;5060479;28;20190;-77
2023/09/30 08:19:03;;;;;;;14.13;12.63;;;;;;;20.29;43.08;93380.25;5052629;28;20225;-76
2023/09/30 08:21:29;;;;;;;18.92;12.25;;;;;;;20.50;43.51;93374.97;5056872;28;20184;-76
2023/09/30 08:23:54;;;;;;;20.23;12.80;;;;;;;20.62;44.10;93389.13;5062397;28;20217;-75
2023/09/30 08:26:20;;;;;;;13.40;12.20;;;;;;;20.97;43.38;93383.63;5056827;28;20226;-75
2023/09/30 08:28:45;;;;;;;14.70;12.82;;;;;;;20.46;44.64;93380.16;5064830;28;20220;-76
2023/09/30 08:31:11;;;;;;;14.13;12.73;;;;;;;20.21;44.12;93361.72;5065649;28;20184;-75
2023/09/30 08:33:36;;;;;;;26.03;14.27;;;;;;;20.48;42.67;93377.94;5064125;28;20242;-75
2023/09/30 08:36:09;;;;;;;16.40;14.40;;;;;;;21.10;42.34;93385.25;5068850;28;20190;-75
2023/09/30 08:38:36;;;;;;;17.97;13.27;;;;;;;21.32;42.45;93384.94;5065606;28;20223;-75
2023/09/30 08:41:02;;;;;;;18.80;13.20;;;;;;;21.33;42.20;93389.91;5065215;28;20199;-77
2023/09/30 08:43:30;;;;;;;13.70;12.50;;;;;;;21.38;41.07;93373.00;5054815;28;20220;-75
2023/09/30 08:45:56;;;;;;;14.05;12.68;;;;;;;21.47;41.56;93384.31;5063030;28;20190;-79
2023/09/30 08:48:23;;;;;;;16.02;13.23;;;;;;;21.59;40.25;93385.13;5067431;28;20223;-78
2023/09/30 08:50:50;;;;;;;14.70;13.20;;;;;;;21.43;40.85;93376.22;5062009;28;20201;-77
2023/09/30 08:53:16;;;;;;;16.30;13.63;;;;;;;21.04;40.83;93352.03;5058532;28;20244;-77
2023/09/30 08:55:43;;;;;;;18.98;13.13;;;;;;;21.60;40.91;93385.94;5066599;28;20185;-76
2023/09/30 08:58:11;;;;;;;14.57;12.70;;;;;;;21.26;41.92;93376.34;5078555;28;20338;-76
2023/09/30 09:00:38;;;;;;;20.15;14.73;;;;;;;21.78;40.11;93382.00;5073613;28;20263;-77
2023/09/30 09:03:05;;;;;;;16.75;12.52;;;;;;;21.37;39.47;93366.91;5060802;28;20232;-80
2023/09/30 09:05:30;;;;;;;15.00;13.43;;;;;;;21.63;37.79;93377.31;5062207;28;20164;-84
2023/09/30 09:07:56;;;;;;;14.02;12.63;;;;;;;21.51;38.52;93371.94;5066300;28;20239;-80
2023/09/30 09:10:21;;;;;;;14.15;12.18;;;;;;;21.40;39.25;93368.91;5066136;28;20212;-75
2023/09/30 09:12:56;;;;;;;17.33;13.13;;;;;;;21.53;40.11;93353.78;5070885;28;21148;-75
2023/09/30 09:15:30;;;;;;;21.40;12.90;;;;;;;21.81;37.97;93365.41;5065711;28;20274;-81
2023/09/30 09:17:56;;;;;;;15.20;13.75;;;;;;;21.78;38.87;93364.19;5058432;28;20226;-78
2023/09/30 09:20:25;;;;;;;15.75;12.45;;;;;;;21.70;38.97;93374.88;5065824;28;20188;-76
2023/09/30 09:22:53;;;;;;;13.45;12.27;;;;;;;21.91;38.22;93365.78;5058218;28;20182;-75
2023/09/30 09:25:19;;;;;;;15.77;14.27;;;;;;;22.10;38.85;93363.34;5061464;28;20222;-76
2023/09/30 09:27:45;;;;;;;13.40;12.32;;;;;;;21.97;38.41;93369.00;5071460;28;20272;-76
2023/09/30 09:30:14;;;;;;;14.82;12.57;;;;;;;22.11;39.36;93372.13;5064714;28;20190;-77
2023/09/30 09:32:39;;;;;;;13.05;11.75;;;;;;;22.15;38.15;93354.38;5069449;28;20183;-75
2023/09/30 09:35:07;;;;;;;17.25;12.48;;;;;;;21.39;38.58;93363.91;5066085;28;20179;-76
2023/09/30 09:37:33;;;;;;;15.27;12.88;;;;;;;21.61;39.21;93350.25;5063479;28;20245;-75
2023/09/30 09:39:58;;;;;;;14.07;12.82;;;;;;;22.07;37.86;93371.25;5067338;28;20184;-75
2023/09/30 09:42:34;;;;;;;13.52;12.32;;;;;;;21.74;37.90;93357.19;5068137;28;20184;-75
2023/09/30 09:45:05;;;;;;;14.32;12.77;;;;;;;21.58;39.30;93366.88;5090502;28;20307;-75
2023/09/30 09:47:32;;;;;;;17.90;12.75;;;;;;;21.39;38.86;93351.41;5079059;28;20787;-76
2023/09/30 09:49:59;;;;;;;13.30;11.38;;;;;;;21.42;39.93;93355.28;5086526;28;20273;-76
2023/09/30 09:52:26;;;;;;;15.32;13.30;;;;;;;21.95;38.98;93356.03;5074043;28;20177;-75
2023/09/30 09:54:51;;;;;;;14.63;12.05;;;;;;;22.20;37.57;93356.84;5075846;28;20226;-75
2023/09/30 09:57:21;;;;;;;12.88;11.32;;;;;;;22.05;38.95;93354.84;5083800;28;20204;-75
2023/09/30 09:59:47;;;;;;;13.63;12.38;;;;;;;22.10;38.76;93357.28;5086426;28;20294;-76
2023/09/30 10:02:14;;;;;;;12.43;11.32;;;;;;;22.26;37.67;93350.19;5085755;28;20188;-76
2023/09/30 10:04:47;;;;;;;14.75;11.88;;;;;;;22.42;37.40;93343.09;5090467;28;20797;-76
2023/09/30 10:07:25;;;;;;;13.30;11.52;;;;;;;22.41;39.21;93348.75;5089811;28;20249;-77
2023/09/30 10:09:53;;;;;;;13.43;11.45;;;;;;;22.18;39.19;93357.16;5068525;28;20222;-76
2023/09/30 10:12:21;;;;;;;13.07;11.68;;;;;;;22.29;38.18;93354.84;5090313;28;20190;-76
2023/09/30 10:14:46;;;;;;;13.73;11.15;;;;;;;21.94;37.04;93340.41;5078523;28;20241;-77
2023/09/30 10:17:12;;;;;;;12.20;11.18;;;;;;;22.05;37.38;93344.94;5069567;28;20185;-76
2023/09/30 10:20:06;;;;;;;12.13;10.70;;;;;;;22.00;36.87;93337.22;5079257;28;20221;-78
2023/09/30 10:22:32;;;;;;;11.05;10.05;;;;;;;21.72;37.96;93335.47;5079588;28;20189;-79
2023/09/30 10:25:05;;;;;;;12.50;11.15;;;;;;;21.72;38.42;93327.47;5090477;28;20212;-76
2023/09/30 10:27:32;;;;;;;14.35;11.82;;;;;;;22.06;37.50;93324.47;5089207;28;20235;-75
2023/09/30 10:29:59;;;;;;;12.52;11.32;;;;;;;22.13;38.42;93335.34;5084518;28;20229;-77
2023/09/30 10:32:53;;;;;;;14.80;10.88;;;;;;;22.20;39.03;93324.91;5086260;28;20252;-77
2023/09/30 10:35:46;;;;;;;12.43;11.43;;;;;;;22.61;36.74;93321.25;5083212;28;20219;-76
2023/09/30 10:38:27;;;;;;;14.93;10.85;;;;;;;22.69;36.16;93307.06;5070688;28;20240;-75
2023/09/30 10:40:53;;;;;;;13.20;11.93;;;;;;;22.55;37.54;93304.75;5086009;28;20174;-77
2023/09/30 10:43:32;;;;;;;15.63;10.05;;;;;;;22.38;37.10;93315.59;5084445;28;20235;-74
2023/09/30 10:45:58;;;;;;;11.85;10.65;;;;;;;22.44;36.27;93297.50;5084558;28;20188;-78
2023/09/30 10:48:33;;;;;;;12.15;9.73;;;;;;;22.96;34.54;93295.66;5086933;28;20286;-75
2023/09/30 10:51:00;;;;;;;10.90;9.95;;;;;;;22.90;34.57;93294.34;5082799;28;20190;-77
2023/09/30 10:53:30;;;;;;;11.60;10.63;;;;;;;23.25;34.23;93306.78;5087703;28;20244;-76
2023/09/30 10:55:59;;;;;;;19.85;11.00;;;;;;;22.91;34.18;93296.66;5085752;28;20276;-78
2023/09/30 10:58:59;;;;;;;10.90;9.80;;;;;;;22.40;35.65;93301.97;5080075;28;20300;-78
2023/09/30 11:01:25;;;;;;;11.05;9.93;;;;;;;22.16;34.98;93268.16;5054416;28;20301;-78
2023/09/30 11:03:57;;;;;;;11.23;10.23;;;;;;;22.40;35.21;93286.75;5085170;28;20229;-77
2023/09/30 11:06:23;;;;;;;12.13;9.43;;;;;;;22.48;33.89;93299.19;5079344;28;20201;-77
2023/09/30 11:09:12;;;;;;;10.27;9.43;;;;;;;22.18;35.12;93295.19;5083541;28;20219;-79
2023/09/30 11:11:48;;;;;;;11.25;10.45;;;;;;;22.30;34.47;93294.44;5088600;28;20177;-76
2023/09/30 11:14:19;;;;;;;12.27;9.88;;;;;;;21.97;35.47;93295.31;5085580;28;20262;-78
2023/09/30 11:16:45;;;;;;;11.18;10.15;;;;;;;22.01;35.80;93285.56;5081741;28;20198;-79